Time;durP1;ratioP1;P1;durP2;ratioP2;P2;SDS_P1;SDS_P2;PMS_P1;PMS_P2;Temp;Humidity;BMP_temperature;BMP_pressure;BME280_temperature;BME280_humidity;BME280_pressure;Samples;Min_cycle;Max_cycle;Signal;HPM_P1;HPM_P2
2023/12/31 00:02:23;;;;;;;2.30;1.70;;;;;;;4.14;67.16;98986.64;107142;1259;72676;-39
2023/12/31 00:04:50;;;;;;;3.80;2.10;;;;;;;4.07;67.36;98995.04;106965;1257;60404;-38
2023/12/31 00:07:19;;;;;;;3.10;1.90;;;;;;;4.01;67.46;98995.71;107132;1258;59647;-39
2023/12/31 00:09:47;;;;;;;4.20;2.10;;;;;;;4.01;67.54;98985.39;107068;1257;72553;-39
2023/12/31 00:12:14;;;;;;;5.70;1.90;;;;;;;4.04;67.46;98985.46;107137;1257;68079;-38
2023/12/31 00:14:41;;;;;;;4.10;2.10;;;;;;;4.02;67.46;98985.70;107096;1257;72715;-39
2023/12/31 00:17:09;;;;;;;4.10;2.10;;;;;;;3.97;67.83;98993.10;107195;1257;60437;-39
2023/12/31 00:19:36;;;;;;;3.40;1.90;;;;;;;3.94;67.99;98992.46;107242;1256;60434;-38
2023/12/31 00:22:04;;;;;;;3.50;1.80;;;;;;;3.92;68.17;98996.77;107244;1256;72580;-39
2023/12/31 00:24:31;;;;;;;3.80;1.90;;;;;;;3.95;68.31;99005.45;107197;1257;67537;-39
2023/12/31 00:26:59;;;;;;;2.60;1.80;;;;;;;4.02;68.22;99006.79;107167;1257;71401;-38
2023/12/31 00:29:29;;;;;;;4.80;2.10;;;;;;;4.03;68.33;99008.21;107203;1256;60434;-39
2023/12/31 00:31:56;;;;;;;;;;;;;;;4.01;68.47;99012.06;107221;1256;61302;-38
2023/12/31 00:34:25;;;;;;;3.20;1.90;;;;;;;3.99;68.61;99009.61;107157;1257;74276;-39
2023/12/31 00:36:52;;;;;;;3.60;2.10;;;;;;;3.96;68.84;99013.92;107263;1257;66613;-39
2023/12/31 00:39:21;;;;;;;3.00;1.80;;;;;;;3.94;68.90;99015.69;107291;1257;71227;-39
2023/12/31 00:41:49;;;;;;;4.10;2.00;;;;;;;4.00;68.94;99017.01;107348;1257;60440;-38
2023/12/31 00:44:16;;;;;;;3.00;1.80;;;;;;;4.01;69.00;99018.05;107224;1257;60329;-39
2023/12/31 00:46:44;;;;;;;5.10;2.70;;;;;;;4.00;69.14;99019.04;107157;1257;73838;-39
2023/12/31 00:49:11;;;;;;;4.50;2.30;;;;;;;3.98;69.28;99020.48;107255;1257;67507;-39
2023/12/31 00:51:39;;;;;;;5.20;2.40;;;;;;;3.93;69.38;99013.14;107234;1257;72643;-38
2023/12/31 00:54:07;;;;;;;5.10;2.40;;;;;;;3.99;69.45;99012.27;107165;1260;60901;-39
2023/12/31 00:56:34;;;;;;;7.00;2.40;;;;;;;4.04;69.32;99006.80;107160;1257;60342;-38
2023/12/31 00:59:02;;;;;;;4.00;2.50;;;;;;;4.05;69.45;99008.44;107257;1257;72906;-38
2023/12/31 01:01:31;;;;;;;4.60;2.20;;;;;;;4.03;69.49;99007.05;107237;1256;66904;-39
2023/12/31 01:03:59;;;;;;;2.80;1.90;;;;;;;4.01;69.64;99006.13;107252;1257;72338;-38
2023/12/31 01:06:26;;;;;;;3.50;2.00;;;;;;;3.98;69.72;99004.08;107224;1257;59707;-38
2023/12/31 01:08:56;;;;;;;4.30;2.50;;;;;;;4.01;69.85;99001.61;106995;1257;312059;-39
2023/12/31 01:12:08;;;;;;;6.60;2.50;;;;;;;4.06;69.84;99007.16;104239;1292;601611;-39
2023/12/31 01:14:35;;;;;;;7.40;3.10;;;;;;;4.02;69.74;99008.56;106606;1266;59250;-39
2023/12/31 01:17:04;;;;;;;5.50;2.50;;;;;;;4.01;69.74;99008.05;106638;1270;59120;-39
2023/12/31 01:19:32;;;;;;;4.50;2.30;;;;;;;3.98;69.94;99008.94;106553;1266;71033;-39
2023/12/31 01:22:00;;;;;;;6.60;2.50;;;;;;;3.97;70.04;99009.05;106729;1267;66271;-39
2023/12/31 01:24:27;;;;;;;4.90;2.10;;;;;;;4.04;69.98;99017.28;106586;1270;72752;-39
2023/12/31 01:26:55;;;;;;;4.10;2.50;;;;;;;4.02;69.99;99017.60;106705;1264;123127;-39
2023/12/31 01:29:23;;;;;;;4.20;2.60;;;;;;;3.93;70.10;99010.96;106838;1263;59317;-39
2023/12/31 01:31:52;;;;;;;6.30;2.80;;;;;;;3.85;70.26;99014.50;106887;1268;72266;-39
2023/12/31 01:34:19;;;;;;;4.10;2.40;;;;;;;3.76;70.50;99015.42;106753;1264;67896;-39
2023/12/31 01:36:47;;;;;;;5.60;2.60;;;;;;;3.73;70.79;99012.56;106710;1263;70535;-39
2023/12/31 01:39:14;;;;;;;5.60;2.50;;;;;;;3.73;70.84;99017.30;106719;1267;59766;-39
2023/12/31 01:41:42;;;;;;;4.70;2.70;;;;;;;3.66;70.82;99009.36;106740;1263;59505;-40
2023/12/31 01:44:09;;;;;;;7.90;3.10;;;;;;;3.59;71.26;99012.16;106802;1263;73139;-39
2023/12/31 01:46:36;;;;;;;6.60;2.60;;;;;;;3.53;71.40;99009.59;106834;1267;67086;-39
2023/12/31 01:49:04;;;;;;;5.60;2.40;;;;;;;3.49;71.70;99010.89;106814;1264;72652;-39
2023/12/31 01:51:33;;;;;;;7.90;2.40;;;;;;;3.50;71.67;99018.97;106849;1263;59588;-40
2023/12/31 01:54:02;;;;;;;7.20;3.20;;;;;;;3.46;71.85;99016.58;106814;1268;60012;-39
2023/12/31 01:56:34;;;;;;;4.70;2.80;;;;;;;3.40;72.02;99016.80;106862;1264;71155;-39
2023/12/31 01:59:01;;;;;;;5.40;2.60;;;;;;;3.33;72.24;99023.53;105315;1263;1003763;-39
2023/12/31 02:01:30;;;;;;;5.60;2.40;;;;;;;3.27;72.53;99024.90;106756;1268;71845;-38
2023/12/31 02:03:58;;;;;;;5.30;2.90;;;;;;;3.28;72.56;99022.67;106806;1269;59661;-39
2023/12/31 02:06:26;;;;;;;8.00;3.10;;;;;;;3.24;72.62;99016.91;106107;1263;1002887;-38
2023/12/31 02:08:54;;;;;;;6.10;2.90;;;;;;;3.17;72.82;99017.30;106817;1264;71759;-39
2023/12/31 02:11:21;;;;;;;5.60;2.70;;;;;;;3.09;73.14;99016.12;106770;1269;67730;-39
2023/12/31 02:13:49;;;;;;;6.60;3.00;;;;;;;3.02;73.33;99021.05;106738;1269;72721;-39
2023/12/31 02:16:17;;;;;;;5.00;2.80;;;;;;;3.01;73.39;99018.73;107636;1259;60168;-38
2023/12/31 02:18:45;;;;;;;7.00;2.80;;;;;;;2.98;73.53;99021.87;107715;1256;59573;-39
2023/12/31 02:21:14;;;;;;;4.80;2.80;;;;;;;2.92;73.80;99019.99;107663;1251;73051;-38
2023/12/31 02:23:42;;;;;;;8.20;3.00;;;;;;;2.85;74.05;99018.45;107645;1256;66321;-39
2023/12/31 02:26:10;;;;;;;5.40;2.50;;;;;;;2.81;74.09;99020.47;107495;1254;71353;-39
2023/12/31 02:28:39;;;;;;;7.50;3.20;;;;;;;2.81;74.11;99023.63;107663;1256;59583;-39
2023/12/31 02:31:07;;;;;;;6.50;2.70;;;;;;;2.79;74.24;99023.46;107502;1255;60020;-39
2023/12/31 02:33:35;;;;;;;8.10;3.00;;;;;;;2.73;74.27;99022.88;107639;1257;73027;-39
2023/12/31 02:36:03;;;;;;;3.70;2.50;;;;;;;2.65;74.48;99023.68;107531;1254;67522;-39
2023/12/31 02:38:30;;;;;;;4.80;2.60;;;;;;;2.57;74.80;99017.45;107638;1256;72687;-39
2023/12/31 02:40:58;;;;;;;4.70;3.10;;;;;;;2.56;74.78;99015.64;107512;1254;60940;-39
2023/12/31 02:43:25;;;;;;;6.50;2.80;;;;;;;2.59;74.82;99016.98;107653;1254;59515;-39
2023/12/31 02:45:53;;;;;;;5.70;2.80;;;;;;;2.57;74.95;99021.41;107643;1252;71807;-39
2023/12/31 02:48:20;;;;;;;4.80;3.00;;;;;;;2.54;75.12;99023.27;107676;1255;66767;-39
2023/12/31 02:50:48;;;;;;;5.10;3.00;;;;;;;2.51;75.17;99025.10;107627;1256;72471;-39
2023/12/31 02:53:15;;;;;;;6.10;3.00;;;;;;;2.50;75.44;99026.89;107648;1254;60241;-39
2023/12/31 02:55:43;;;;;;;9.00;2.70;;;;;;;2.54;75.34;99030.33;107627;1255;59952;-39
2023/12/31 02:58:10;;;;;;;6.70;3.30;;;;;;;2.54;75.27;99036.25;107652;1256;73055;-39
2023/12/31 03:00:38;;;;;;;7.20;3.30;;;;;;;2.50;75.62;99037.86;107648;1257;67750;-39
2023/12/31 03:03:07;;;;;;;6.20;2.80;;;;;;;2.46;75.67;99044.84;107630;1254;71545;-39
2023/12/31 03:05:35;;;;;;;8.10;3.10;;;;;;;2.44;75.69;99044.52;107619;1256;60918;-39
2023/12/31 03:08:03;;;;;;;4.90;2.70;;;;;;;2.48;75.63;99046.32;107638;1256;59964;-39
2023/12/31 03:10:31;;;;;;;8.00;2.80;;;;;;;2.52;75.77;99047.73;107699;1251;71814;-39
2023/12/31 03:12:59;;;;;;;7.80;3.10;;;;;;;2.51;75.89;99046.07;107614;1253;66898;-39
2023/12/31 03:15:27;;;;;;;5.80;3.40;;;;;;;2.47;76.10;99043.00;107596;1254;72341;-39
2023/12/31 03:17:55;;;;;;;5.80;3.20;;;;;;;2.48;76.38;99050.96;107616;1254;59753;-39
2023/12/31 03:20:22;;;;;;;5.40;2.80;;;;;;;2.51;76.31;99054.56;107629;1254;60004;-38
2023/12/31 03:22:50;;;;;;;6.40;3.00;;;;;;;2.59;76.35;99060.73;107533;1258;73080;-40
2023/12/31 03:25:18;;;;;;;6.50;2.80;;;;;;;2.62;76.25;99064.77;107656;1257;67536;-39
2023/12/31 03:27:45;;;;;;;8.50;3.60;;;;;;;2.63;76.21;99071.61;107630;1257;72654;-38
2023/12/31 03:30:13;;;;;;;7.10;3.40;;;;;;;2.62;76.14;99071.35;107626;1254;59524;-39
2023/12/31 03:32:41;;;;;;;9.80;3.30;;;;;;;2.66;76.18;99081.21;107562;1254;60039;-39
2023/12/31 03:35:09;;;;;;;7.70;3.60;;;;;;;2.75;76.16;99081.84;107662;1252;71666;-38
2023/12/31 03:37:36;;;;;;;5.00;3.00;;;;;;;2.79;76.19;99087.65;107655;1254;67622;-39
2023/12/31 03:40:05;;;;;;;8.60;3.20;;;;;;;2.79;76.22;99083.15;107647;1255;72690;-39
2023/12/31 03:42:33;;;;;;;7.00;3.30;;;;;;;2.79;76.06;99082.29;107706;1253;59614;-39
2023/12/31 03:45:00;;;;;;;7.00;3.00;;;;;;;2.86;75.75;99083.96;107656;1253;60013;-38
2023/12/31 03:47:28;;;;;;;7.30;3.30;;;;;;;2.94;75.75;99079.20;107631;1254;72975;-38
2023/12/31 03:49:56;;;;;;;8.10;3.40;;;;;;;2.97;75.54;99083.70;107620;1254;67498;-39
2023/12/31 03:52:23;;;;;;;6.40;3.40;;;;;;;2.98;75.52;99086.90;107615;1257;72441;-38
2023/12/31 03:54:51;;;;;;;5.70;3.30;;;;;;;2.99;75.55;99086.39;107652;1254;59733;-38
2023/12/31 03:57:18;;;;;;;5.80;3.50;;;;;;;3.00;75.47;99083.89;107475;1252;59485;-38
2023/12/31 03:59:46;;;;;;;5.70;3.00;;;;;;;3.05;75.29;99090.33;107640;1254;72961;-39
2023/12/31 04:02:13;;;;;;;5.90;2.80;;;;;;;3.12;75.22;99090.38;107661;1253;66323;-38
2023/12/31 04:04:41;;;;;;;9.00;3.30;;;;;;;3.15;74.97;99093.95;107616;1256;72460;-39
2023/12/31 04:07:10;;;;;;;8.40;3.70;;;;;;;3.13;75.12;99093.03;107664;1254;59503;-39
2023/12/31 04:09:37;;;;;;;5.70;2.80;;;;;;;3.12;74.95;99096.11;107633;1254;59646;-39
2023/12/31 04:12:06;;;;;;;6.00;2.90;;;;;;;3.12;75.10;99094.98;107636;1256;72239;-39
2023/12/31 04:14:33;;;;;;;6.60;3.00;;;;;;;3.19;74.75;99103.67;107697;1256;66271;-39
2023/12/31 04:17:00;;;;;;;6.50;3.30;;;;;;;3.26;74.78;99101.45;107488;1254;71833;-39
2023/12/31 04:19:30;;;;;;;7.90;3.20;;;;;;;3.26;74.48;99101.80;107715;1254;59591;-39
2023/12/31 04:21:57;;;;;;;7.10;3.30;;;;;;;3.24;74.48;99102.48;107655;1252;60027;-39
2023/12/31 04:24:26;;;;;;;7.00;2.90;;;;;;;3.21;74.55;99104.55;107540;1254;72221;-38
2023/12/31 04:26:55;;;;;;;5.40;2.90;;;;;;;3.19;74.36;99106.14;107675;1252;66613;-38
2023/12/31 04:29:23;;;;;;;5.80;2.80;;;;;;;3.22;74.23;99102.22;107498;1254;71828;-38
2023/12/31 04:31:50;;;;;;;6.60;3.50;;;;;;;3.24;74.13;99097.27;107652;1254;59708;-39
2023/12/31 04:34:21;;;;;;;7.00;3.40;;;;;;;3.20;74.12;99094.35;107668;1256;59708;-39
2023/12/31 04:36:49;;;;;;;5.40;3.10;;;;;;;3.13;74.18;99104.52;107650;1254;73043;-39
2023/12/31 04:39:16;;;;;;;7.40;3.30;;;;;;;3.07;74.40;99114.36;107524;1252;66772;-39
2023/12/31 04:41:44;;;;;;;9.10;3.40;;;;;;;3.03;74.43;99112.13;107632;1253;72694;-39
2023/12/31 04:44:11;;;;;;;6.40;3.20;;;;;;;3.04;74.26;99114.68;107623;1254;60898;-39
2023/12/31 04:46:40;;;;;;;7.10;4.00;;;;;;;3.06;74.45;99116.05;107673;1253;60048;-38
2023/12/31 04:49:07;;;;;;;8.30;3.40;;;;;;;3.03;74.43;99121.14;107683;1253;72070;-38
2023/12/31 04:51:35;;;;;;;6.50;3.20;;;;;;;2.99;74.50;99121.98;107674;1254;67561;-38
2023/12/31 04:54:02;;;;;;;9.90;3.60;;;;;;;2.96;74.76;99125.19;107672;1257;71228;-38
2023/12/31 04:56:30;;;;;;;7.40;3.10;;;;;;;2.98;74.64;99123.15;107635;1254;59656;-38
2023/12/31 04:58:58;;;;;;;6.40;3.20;;;;;;;3.07;74.79;99121.70;107655;1256;61417;-38
2023/12/31 05:01:31;;;;;;;8.50;3.00;;;;;;;3.13;74.56;99122.02;107674;1254;73053;-38
2023/12/31 05:04:00;;;;;;;9.60;3.50;;;;;;;3.12;74.53;99129.04;107672;1252;66632;-39
2023/12/31 05:06:28;;;;;;;6.20;3.00;;;;;;;3.12;74.43;99132.91;107644;1254;72683;-38
2023/12/31 05:08:55;;;;;;;8.50;3.30;;;;;;;3.13;74.59;99135.95;107639;1254;59620;-38
2023/12/31 05:11:25;;;;;;;7.80;3.10;;;;;;;3.20;74.50;99139.03;107577;1253;60015;-38
2023/12/31 05:13:53;;;;;;;8.10;3.10;;;;;;;3.29;74.25;99136.16;107649;1254;72993;-38
2023/12/31 05:16:20;;;;;;;7.20;3.20;;;;;;;3.31;74.13;99140.44;107649;1254;66413;-38
2023/12/31 05:18:52;;;;;;;6.10;3.60;;;;;;;3.31;74.03;99148.00;107495;1254;72724;-38
2023/12/31 05:21:20;;;;;;;7.40;3.50;;;;;;;3.31;74.15;99146.87;107599;1253;60457;-38
2023/12/31 05:23:47;;;;;;;6.80;3.40;;;;;;;3.33;74.00;99149.86;107614;1255;60316;-38
2023/12/31 05:26:15;;;;;;;10.10;3.50;;;;;;;3.39;73.90;99142.23;107632;1251;74076;-38
2023/12/31 05:28:42;;;;;;;6.30;3.40;;;;;;;3.41;73.86;99141.88;107670;1254;66915;-38
2023/12/31 05:31:10;;;;;;;6.20;3.30;;;;;;;3.39;73.89;99141.16;107627;1254;71682;-39
2023/12/31 05:33:38;;;;;;;8.90;3.80;;;;;;;3.38;74.03;99140.53;106871;1254;1002977;-38
2023/12/31 05:36:06;;;;;;;5.50;3.20;;;;;;;3.37;74.17;99133.73;107651;1253;60066;-38
2023/12/31 05:38:33;;;;;;;6.80;3.10;;;;;;;3.42;73.95;99129.75;107602;1255;74716;-39
2023/12/31 05:41:01;;;;;;;5.90;3.20;;;;;;;3.48;73.75;99131.70;107678;1252;66909;-39
2023/12/31 05:43:28;;;;;;;6.40;3.20;;;;;;;3.47;73.76;99125.77;107633;1254;72660;-39
2023/12/31 05:45:56;;;;;;;6.70;3.50;;;;;;;3.44;73.88;99119.58;107663;1254;60435;-39
2023/12/31 05:48:23;;;;;;;8.50;3.50;;;;;;;3.40;73.77;99125.73;107646;1254;59665;-39
2023/12/31 05:50:51;;;;;;;10.30;3.90;;;;;;;3.34;73.96;99132.16;107630;1253;72668;-40
2023/12/31 05:53:18;;;;;;;8.30;3.70;;;;;;;3.34;73.85;99132.31;107644;1257;66644;-40
2023/12/31 05:55:46;;;;;;;10.20;4.00;;;;;;;3.37;73.95;99142.52;107660;1253;72805;-40
2023/12/31 05:58:14;;;;;;;6.70;3.20;;;;;;;3.34;74.13;99147.00;107689;1254;60448;-40
2023/12/31 06:00:42;;;;;;;6.40;3.60;;;;;;;3.29;74.23;99146.23;107652;1257;60294;-40
2023/12/31 06:03:09;;;;;;;6.60;3.70;;;;;;;3.24;74.49;99155.35;107713;1252;72879;-38
2023/12/31 06:05:37;;;;;;;9.30;3.70;;;;;;;3.18;74.74;99156.23;107603;1252;66520;-38
2023/12/31 06:08:05;;;;;;;7.90;3.70;;;;;;;3.19;74.90;99155.67;107648;1254;71683;-38
2023/12/31 06:10:33;;;;;;;6.80;3.30;;;;;;;3.21;74.79;99161.27;107677;1253;60469;-38
2023/12/31 06:13:01;;;;;;;9.30;3.80;;;;;;;3.19;75.20;99167.20;107636;1256;60511;-38
2023/12/31 06:15:30;;;;;;;7.50;3.60;;;;;;;3.15;75.44;99167.14;107659;1252;72572;-38
2023/12/31 06:17:57;;;;;;;8.30;4.00;;;;;;;3.14;75.51;99165.76;107656;1256;68195;-39
2023/12/31 06:20:25;;;;;;;5.50;3.30;;;;;;;3.18;75.55;99163.27;106913;1254;1003717;-38
2023/12/31 06:22:52;;;;;;;7.30;3.70;;;;;;;3.26;75.36;99164.31;107646;1253;60468;-39
2023/12/31 06:25:20;;;;;;;6.60;3.20;;;;;;;3.29;75.35;99166.70;107653;1254;60424;-38
2023/12/31 06:27:48;;;;;;;7.90;3.70;;;;;;;3.30;75.39;99162.56;107680;1253;73881;-38
2023/12/31 06:30:15;;;;;;;7.00;3.70;;;;;;;3.29;75.53;99164.77;107696;1256;66638;-39
2023/12/31 06:32:43;;;;;;;7.40;3.20;;;;;;;3.31;75.34;99162.95;107654;1254;72529;-38
2023/12/31 06:35:11;;;;;;;7.60;3.00;;;;;;;3.36;75.32;99160.55;107635;1254;60474;-38
2023/12/31 06:37:38;;;;;;;6.00;3.20;;;;;;;3.41;75.25;99161.08;107675;1251;60879;-38
2023/12/31 06:40:08;;;;;;;5.90;3.50;;;;;;;3.42;75.37;99159.45;107691;1253;73762;-39
2023/12/31 06:42:35;;;;;;;8.60;3.40;;;;;;;3.41;75.49;99163.81;107701;1254;66291;-38
2023/12/31 06:45:05;;;;;;;6.70;3.80;;;;;;;3.40;75.58;99165.55;107622;1254;72700;-40
2023/12/31 06:47:32;;;;;;;9.10;3.40;;;;;;;3.40;75.73;99171.00;107668;1252;60859;-39
2023/12/31 06:49:59;;;;;;;9.00;3.90;;;;;;;3.45;75.66;99173.67;107669;1254;59870;-39
2023/12/31 06:52:27;;;;;;;7.10;3.50;;;;;;;3.52;75.40;99175.09;107654;1252;72597;-39
2023/12/31 06:54:55;;;;;;;6.20;3.50;;;;;;;3.54;75.50;99180.27;107622;1254;66393;-38
2023/12/31 06:57:22;;;;;;;7.70;4.20;;;;;;;3.50;75.33;99177.85;107616;1254;72751;-39
2023/12/31 06:59:50;;;;;;;8.30;3.70;;;;;;;3.50;75.55;99182.29;107643;1253;60571;-38
2023/12/31 07:02:19;;;;;;;8.90;4.00;;;;;;;3.48;75.51;99179.53;107645;1253;60393;-38
2023/12/31 07:04:46;;;;;;;8.50;4.00;;;;;;;3.51;75.43;99186.02;107597;1252;73839;-39
2023/12/31 07:07:14;;;;;;;8.30;3.50;;;;;;;3.58;75.15;99188.31;107635;1251;66318;-38
2023/12/31 07:09:42;;;;;;;6.40;3.70;;;;;;;3.60;75.12;99191.67;107642;1254;72545;-38
2023/12/31 07:12:09;;;;;;;8.90;4.20;;;;;;;3.58;75.03;99193.92;107639;1254;60312;-39
2023/12/31 07:14:37;;;;;;;10.30;4.10;;;;;;;3.58;75.07;99197.59;107640;1253;60343;-38
2023/12/31 07:17:05;;;;;;;7.10;3.30;;;;;;;3.59;74.97;99194.04;107598;1254;73877;-38
2023/12/31 07:19:32;;;;;;;7.60;3.70;;;;;;;3.66;74.45;99196.83;107638;1254;67918;-39
2023/12/31 07:22:00;;;;;;;10.50;4.00;;;;;;;3.73;74.12;99199.91;107627;1256;72708;-38
2023/12/31 07:24:27;;;;;;;6.90;3.80;;;;;;;3.75;73.99;99207.37;107680;1253;60302;-39
2023/12/31 07:26:55;;;;;;;7.10;3.60;;;;;;;3.75;73.67;99205.19;107648;1253;60027;-38
2023/12/31 07:29:22;;;;;;;9.40;3.30;;;;;;;3.74;73.39;99210.89;107683;1253;72562;-38
2023/12/31 07:31:49;;;;;;;8.40;3.90;;;;;;;3.73;73.41;99212.56;107662;1253;67558;-39
2023/12/31 07:34:17;;;;;;;7.60;3.70;;;;;;;3.79;73.01;99208.06;107623;1253;71516;-39
2023/12/31 07:36:45;;;;;;;7.50;3.50;;;;;;;3.85;72.88;99212.46;107648;1253;60460;-39
2023/12/31 07:39:12;;;;;;;6.70;3.40;;;;;;;3.87;72.57;99213.55;107665;1253;61064;-39
2023/12/31 07:41:40;;;;;;;7.00;3.20;;;;;;;3.87;72.46;99215.08;107644;1251;72820;-39
2023/12/31 07:44:07;;;;;;;7.40;3.60;;;;;;;3.88;72.49;99215.67;107706;1253;66303;-39
2023/12/31 07:46:34;;;;;;;7.00;3.20;;;;;;;3.90;72.22;99213.15;107571;1253;72335;-39
2023/12/31 07:49:03;;;;;;;8.70;3.20;;;;;;;3.98;72.10;99219.67;107512;1254;60815;-39
2023/12/31 07:51:31;;;;;;;7.90;3.10;;;;;;;4.07;71.73;99225.03;107491;1253;60594;-39
2023/12/31 07:53:58;;;;;;;5.80;3.50;;;;;;;4.12;71.45;99228.77;107507;1253;71608;-39
2023/12/31 07:56:26;;;;;;;8.20;3.80;;;;;;;4.17;71.27;99230.86;107478;1253;66369;-39
2023/12/31 07:58:53;;;;;;;8.10;4.10;;;;;;;4.23;70.79;99232.16;107501;1255;71656;-39
2023/12/31 08:01:21;;;;;;;10.00;3.70;;;;;;;4.30;70.42;99232.04;107540;1253;59730;-39
2023/12/31 08:03:50;;;;;;;7.50;3.20;;;;;;;4.38;69.85;99233.85;107482;1253;60442;-39
2023/12/31 08:06:18;;;;;;;6.70;3.10;;;;;;;4.53;69.23;99237.20;107517;1253;73755;-39
2023/12/31 08:08:46;;;;;;;6.60;3.10;;;;;;;4.64;68.79;99243.25;107500;1254;67841;-39
2023/12/31 08:11:13;;;;;;;6.30;3.20;;;;;;;4.71;68.47;99243.57;107474;1257;71467;-40
2023/12/31 08:13:41;;;;;;;9.60;3.40;;;;;;;4.80;67.82;99244.23;107484;1253;60383;-40
2023/12/31 08:16:08;;;;;;;7.30;3.20;;;;;;;4.89;67.07;99253.08;107488;1254;59668;-40
2023/12/31 08:18:36;;;;;;;8.30;3.30;;;;;;;4.96;66.81;99254.12;107536;1253;73937;-40
2023/12/31 08:21:04;;;;;;;6.70;3.10;;;;;;;5.05;66.66;99256.00;107480;1253;67579;-38
2023/12/31 08:23:32;;;;;;;11.40;3.50;;;;;;;5.20;65.96;99259.66;107473;1255;72740;-39
2023/12/31 08:26:00;;;;;;;7.90;3.40;;;;;;;5.31;65.20;99262.84;107489;1254;60407;-39
2023/12/31 08:28:27;;;;;;;8.20;3.20;;;;;;;5.36;65.17;99263.27;107487;1253;60451;-40
2023/12/31 08:30:55;;;;;;;7.30;3.30;;;;;;;5.40;64.56;99271.02;107514;1253;73841;-40
2023/12/31 08:33:23;;;;;;;9.10;3.40;;;;;;;5.43;64.38;99265.02;107524;1257;66265;-40
2023/12/31 08:35:50;;;;;;;8.90;2.80;;;;;;;5.50;64.43;99266.92;107498;1253;72491;-40
2023/12/31 08:38:18;;;;;;;9.60;3.10;;;;;;;5.58;64.45;99266.39;107515;1253;60299;-40
2023/12/31 08:40:46;;;;;;;7.00;3.40;;;;;;;5.67;63.66;99269.20;107512;1253;60502;-40
2023/12/31 08:43:15;;;;;;;6.60;3.10;;;;;;;5.73;62.92;99270.83;107512;1253;73817;-40
2023/12/31 08:45:43;;;;;;;8.20;3.00;;;;;;;5.75;62.94;99267.23;107528;1253;67506;-40
2023/12/31 08:48:11;;;;;;;9.10;3.30;;;;;;;5.82;62.86;99273.86;107531;1253;71102;-40
2023/12/31 08:50:39;;;;;;;9.30;3.30;;;;;;;5.91;62.67;99274.06;107489;1253;60945;-40
2023/12/31 08:53:07;;;;;;;8.00;3.40;;;;;;;6.03;61.63;99268.52;107513;1253;60296;-40
2023/12/31 08:55:35;;;;;;;7.00;3.30;;;;;;;6.11;61.42;99266.72;107504;1253;73788;-40
2023/12/31 08:58:03;;;;;;;5.20;2.80;;;;;;;6.16;61.28;99259.41;107461;1253;66299;-40
2023/12/31 09:00:30;;;;;;;6.00;3.20;;;;;;;6.17;60.91;99258.91;107471;1254;72700;-40
2023/12/31 09:02:58;;;;;;;6.90;3.30;;;;;;;6.21;60.88;99262.53;107489;1253;60416;-40
2023/12/31 09:05:26;;;;;;;7.90;3.20;;;;;;;6.27;60.40;99267.11;107500;1253;61170;-40
2023/12/31 09:07:53;;;;;;;7.10;2.90;;;;;;;6.31;59.58;99265.23;107490;1253;74124;-38
2023/12/31 09:10:21;;;;;;;6.50;2.30;;;;;;;6.30;59.23;99271.75;107521;1253;67509;-37
2023/12/31 09:12:49;;;;;;;4.70;2.70;;;;;;;6.28;59.41;99269.62;107477;1253;71055;-38
2023/12/31 09:15:16;;;;;;;6.70;3.00;;;;;;;6.30;59.59;99262.37;107499;1253;60458;-38
2023/12/31 09:17:44;;;;;;;6.80;2.80;;;;;;;6.34;59.37;99261.20;107490;1254;60350;-38
2023/12/31 09:20:12;;;;;;;4.60;2.80;;;;;;;6.36;59.05;99258.80;107496;1253;73859;-38
2023/12/31 09:22:39;;;;;;;8.00;3.40;;;;;;;6.34;58.82;99260.73;107552;1253;67559;-39
2023/12/31 09:25:08;;;;;;;5.70;2.80;;;;;;;6.30;59.25;99265.29;107455;1257;72683;-39
2023/12/31 09:27:35;;;;;;;5.60;3.00;;;;;;;6.21;59.11;99259.84;107538;1253;60552;-39
2023/12/31 09:30:04;;;;;;;9.30;3.10;;;;;;;6.07;59.16;99260.04;107491;1253;60648;-39
2023/12/31 09:32:31;;;;;;;8.00;3.20;;;;;;;5.91;59.53;99260.06;107518;1253;72633;-39
2023/12/31 09:34:59;;;;;;;5.00;2.70;;;;;;;5.77;59.69;99263.41;107489;1252;67485;-39
2023/12/31 09:37:27;;;;;;;7.50;3.60;;;;;;;5.69;59.68;99259.41;107479;1253;72664;-39
2023/12/31 09:39:55;;;;;;;7.10;2.90;;;;;;;5.62;59.87;99263.48;107558;1252;60500;-39
2023/12/31 09:42:33;;;;;;;6.50;2.90;;;;;;;5.55;60.09;99267.23;107518;1253;60049;-39
2023/12/31 09:45:03;;;;;;;6.60;3.30;;;;;;;5.49;60.30;99270.98;107509;1253;73865;-39
2023/12/31 09:47:31;;;;;;;5.70;2.80;;;;;;;5.48;60.35;99277.09;107500;1254;67880;-39
2023/12/31 09:49:59;;;;;;;8.30;3.00;;;;;;;5.48;59.68;99275.92;107485;1256;71405;-39
2023/12/31 09:52:28;;;;;;;6.90;3.00;;;;;;;5.44;59.38;99276.08;107269;1259;60429;-39
2023/12/31 09:54:56;;;;;;;7.50;3.10;;;;;;;5.41;59.84;99278.29;107311;1253;60377;-39
2023/12/31 09:57:24;;;;;;;7.30;3.00;;;;;;;5.39;59.96;99279.27;107386;1253;74064;-39
2023/12/31 09:59:51;;;;;;;5.60;2.70;;;;;;;5.38;60.17;99281.45;107518;1253;66459;-39
2023/12/31 10:02:23;;;;;;;6.20;2.80;;;;;;;5.40;59.72;99282.69;107511;1254;71093;-39
2023/12/31 10:04:51;;;;;;;4.90;2.50;;;;;;;5.43;58.53;99283.29;107539;1253;60303;-39
2023/12/31 10:07:22;;;;;;;7.50;3.00;;;;;;;5.47;58.42;99286.58;107511;1253;60390;-39
2023/12/31 10:09:50;;;;;;;12.00;6.30;;;;;;;5.53;58.27;99287.21;107545;1253;73774;-39
2023/12/31 10:12:17;;;;;;;19.50;11.50;;;;;;;5.58;57.88;99281.98;107508;1253;67664;-40
2023/12/31 10:14:45;;;;;;;6.80;3.30;;;;;;;5.57;57.51;99287.41;107497;1253;72636;-39
2023/12/31 10:17:12;;;;;;;7.10;3.40;;;;;;;5.53;57.13;99288.96;107484;1254;60332;-39
2023/12/31 10:19:40;;;;;;;19.20;8.80;;;;;;;5.45;57.53;99286.81;107278;1253;60461;-39
2023/12/31 10:22:08;;;;;;;32.70;14.70;;;;;;;5.38;57.93;99281.02;107531;1253;73771;-39
2023/12/31 10:24:36;;;;;;;13.70;6.60;;;;;;;5.31;58.05;99276.58;107473;1253;66416;-39
2023/12/31 10:27:06;;;;;;;35.00;17.30;;;;;;;5.29;58.43;99275.45;107492;1254;71523;-39
2023/12/31 10:29:34;;;;;;;15.80;7.40;;;;;;;5.39;58.53;99271.11;104486;1254;1003748;-40
2023/12/31 10:32:03;;;;;;;91.50;46.40;;;;;;;5.53;58.42;99264.30;107517;1253;60502;-40
2023/12/31 10:34:30;;;;;;;16.80;8.70;;;;;;;5.66;57.97;99264.70;107522;1253;73861;-40
2023/12/31 10:37:05;;;;;;;11.60;5.60;;;;;;;5.70;57.59;99263.38;107511;1253;66995;-40
2023/12/31 10:39:38;;;;;;;8.60;3.40;;;;;;;5.67;57.24;99258.89;107544;1255;72700;-40
2023/12/31 10:42:06;;;;;;;12.10;5.50;;;;;;;5.60;57.50;99262.02;107485;1256;60261;-40
2023/12/31 10:44:37;;;;;;;6.30;3.40;;;;;;;5.54;57.63;99263.33;107505;1257;59575;-39
2023/12/31 10:47:06;;;;;;;6.60;3.00;;;;;;;5.40;57.61;99253.65;107503;1256;73862;-40
2023/12/31 10:49:34;;;;;;;5.00;2.30;;;;;;;5.40;57.45;99258.80;107566;1253;66537;-40
2023/12/31 10:52:03;;;;;;;5.90;2.80;;;;;;;5.33;57.46;99262.70;107486;1253;72722;-40
2023/12/31 10:54:51;;;;;;;7.30;2.90;;;;;;;5.27;57.30;99259.38;107537;1254;60441;-40
2023/12/31 10:57:21;;;;;;;4.40;2.40;;;;;;;5.17;57.01;99248.59;107531;1253;60990;-40
2023/12/31 10:59:49;;;;;;;5.40;2.60;;;;;;;5.09;56.81;99243.27;107356;1253;73787;-40
2023/12/31 11:02:20;;;;;;;6.40;2.60;;;;;;;5.09;56.98;99243.36;107395;1253;67544;-40
2023/12/31 11:04:48;;;;;;;5.80;2.40;;;;;;;5.26;56.52;99239.34;107462;1253;72626;-40
2023/12/31 11:07:19;;;;;;;6.10;2.40;;;;;;;5.54;55.52;99239.50;107469;1253;60409;-40
2023/12/31 11:09:48;;;;;;;4.10;2.20;;;;;;;5.84;54.56;99231.54;107481;1253;60415;-40
2023/12/31 11:12:16;;;;;;;5.80;2.20;;;;;;;6.14;53.89;99231.52;107514;1253;73880;-41
2023/12/31 11:15:30;;;;;;;4.90;2.30;;;;;;;6.40;52.71;99232.10;107519;1256;67764;-40
2023/12/31 11:18:32;;;;;;;6.60;2.80;;;;;;;6.64;52.20;99236.48;107465;1253;71474;-40
2023/12/31 11:21:15;;;;;;;5.50;2.90;;;;;;;6.75;52.20;99242.14;107503;1254;60402;-40
2023/12/31 11:24:05;;;;;;;5.10;2.60;;;;;;;6.88;52.51;99241.92;107431;1253;60518;-40
2023/12/31 11:26:34;;;;;;;6.70;3.00;;;;;;;7.04;52.05;99240.83;107483;1258;73895;-39
2023/12/31 11:29:02;;;;;;;5.70;2.70;;;;;;;7.15;51.79;99244.41;107577;1257;67882;-40
2023/12/31 11:31:29;;;;;;;5.00;2.30;;;;;;;7.24;51.92;99246.30;107474;1254;72693;-40
2023/12/31 11:33:59;;;;;;;5.20;2.50;;;;;;;7.38;51.80;99252.64;107464;1255;60204;-40
2023/12/31 11:36:26;;;;;;;5.90;2.70;;;;;;;7.53;51.58;99251.45;107500;1253;60361;-39
2023/12/31 11:39:01;;;;;;;4.50;2.20;;;;;;;7.68;51.28;99254.30;107502;1253;73783;-40